sensor_id;sensor_type;location;lat;lon;timestamp;temperature;humidity
69503;SHT31;56704;54.242;12.442;2022-11-20T00:02:16;0.77;97.45
69503;SHT31;56704;54.242;12.442;2022-11-20T00:04:43;0.76;97.52
69503;SHT31;56704;54.242;12.442;2022-11-20T00:07:09;0.77;97.55
69503;SHT31;56704;54.242;12.442;2022-11-20T00:09:36;0.83;97.54
69503;SHT31;56704;54.242;12.442;2022-11-20T00:12:03;0.85;97.42
69503;SHT31;56704;54.242;12.442;2022-11-20T00:14:30;0.87;97.51
69503;SHT31;56704;54.242;12.442;2022-11-20T00:16:58;0.89;97.46
69503;SHT31;56704;54.242;12.442;2022-11-20T00:19:24;0.93;97.50
69503;SHT31;56704;54.242;12.442;2022-11-20T00:21:51;0.95;97.53
69503;SHT31;56704;54.242;12.442;2022-11-20T00:24:19;0.99;97.43
69503;SHT31;56704;54.242;12.442;2022-11-20T00:26:45;1.00;97.43
69503;SHT31;56704;54.242;12.442;2022-11-20T00:29:12;1.04;97.48
69503;SHT31;56704;54.242;12.442;2022-11-20T00:31:39;1.10;97.39
69503;SHT31;56704;54.242;12.442;2022-11-20T00:34:07;1.15;97.37
69503;SHT31;56704;54.242;12.442;2022-11-20T00:36:34;1.23;97.27
69503;SHT31;56704;54.242;12.442;2022-11-20T00:39:00;1.27;97.19
69503;SHT31;56704;54.242;12.442;2022-11-20T00:41:28;1.36;97.19
69503;SHT31;56704;54.242;12.442;2022-11-20T00:43:56;1.40;97.03
69503;SHT31;56704;54.242;12.442;2022-11-20T00:46:24;1.38;96.94
69503;SHT31;56704;54.242;12.442;2022-11-20T00:48:51;1.44;96.83
69503;SHT31;56704;54.242;12.442;2022-11-20T00:51:20;1.50;96.66
69503;SHT31;56704;54.242;12.442;2022-11-20T00:53:47;1.50;96.71
69503;SHT31;56704;54.242;12.442;2022-11-20T00:56:16;1.51;96.64
69503;SHT31;56704;54.242;12.442;2022-11-20T00:58:44;1.61;95.62
69503;SHT31;56704;54.242;12.442;2022-11-20T01:01:14;1.71;94.48
69503;SHT31;56704;54.242;12.442;2022-11-20T01:03:42;1.83;93.72
69503;SHT31;56704;54.242;12.442;2022-11-20T01:06:11;1.85;93.68
69503;SHT31;56704;54.242;12.442;2022-11-20T01:08:40;1.98;92.73
69503;SHT31;56704;54.242;12.442;2022-11-20T01:11:08;1.99;92.31
69503;SHT31;56704;54.242;12.442;2022-11-20T01:13:35;2.05;91.70
69503;SHT31;56704;54.242;12.442;2022-11-20T01:16:07;2.13;90.78
69503;SHT31;56704;54.242;12.442;2022-11-20T01:18:35;2.09;92.04
69503;SHT31;56704;54.242;12.442;2022-11-20T01:21:03;2.09;92.37
69503;SHT31;56704;54.242;12.442;2022-11-20T01:23:31;2.02;92.55
69503;SHT31;56704;54.242;12.442;2022-11-20T01:26:01;1.95;92.81
69503;SHT31;56704;54.242;12.442;2022-11-20T01:28:29;1.89;93.19
69503;SHT31;56704;54.242;12.442;2022-11-20T01:30:56;1.83;93.64
69503;SHT31;56704;54.242;12.442;2022-11-20T01:33:22;1.85;93.72
69503;SHT31;56704;54.242;12.442;2022-11-20T01:35:49;1.75;93.71
69503;SHT31;56704;54.242;12.442;2022-11-20T01:38:16;1.76;92.77
69503;SHT31;56704;54.242;12.442;2022-11-20T01:40:43;1.74;93.15
69503;SHT31;56704;54.242;12.442;2022-11-20T01:43:14;1.72;93.77
69503;SHT31;56704;54.242;12.442;2022-11-20T01:46:03;1.76;93.46
69503;SHT31;56704;54.242;12.442;2022-11-20T01:48:34;1.79;92.97
69503;SHT31;56704;54.242;12.442;2022-11-20T01:51:04;1.82;93.29
69503;SHT31;56704;54.242;12.442;2022-11-20T01:53:33;1.89;93.06
69503;SHT31;56704;54.242;12.442;2022-11-20T01:56:03;1.92;91.48
69503;SHT31;56704;54.242;12.442;2022-11-20T01:58:35;1.98;91.87
69503;SHT31;56704;54.242;12.442;2022-11-20T02:01:04;2.03;91.29
69503;SHT31;56704;54.242;12.442;2022-11-20T02:03:31;2.05;91.67
69503;SHT31;56704;54.242;12.442;2022-11-20T02:06:03;2.07;91.39
69503;SHT31;56704;54.242;12.442;2022-11-20T02:08:32;2.07;91.13
69503;SHT31;56704;54.242;12.442;2022-11-20T02:10:59;2.07;91.09
69503;SHT31;56704;54.242;12.442;2022-11-20T02:13:25;2.10;90.57
69503;SHT31;56704;54.242;12.442;2022-11-20T02:16:24;2.17;89.16
69503;SHT31;56704;54.242;12.442;2022-11-20T02:18:52;2.19;90.14
69503;SHT31;56704;54.242;12.442;2022-11-20T02:21:28;2.23;88.99
69503;SHT31;56704;54.242;12.442;2022-11-20T02:24:08;2.20;89.40
69503;SHT31;56704;54.242;12.442;2022-11-20T02:26:41;2.17;89.38
69503;SHT31;56704;54.242;12.442;2022-11-20T02:29:08;2.20;89.31
69503;SHT31;56704;54.242;12.442;2022-11-20T02:31:37;2.22;89.98
69503;SHT31;56704;54.242;12.442;2022-11-20T02:34:05;2.19;89.72
69503;SHT31;56704;54.242;12.442;2022-11-20T02:36:33;2.15;89.72
69503;SHT31;56704;54.242;12.442;2022-11-20T02:39:00;2.12;90.44
69503;SHT31;56704;54.242;12.442;2022-11-20T02:41:33;2.06;90.44
69503;SHT31;56704;54.242;12.442;2022-11-20T02:44:00;2.05;89.78
69503;SHT31;56704;54.242;12.442;2022-11-20T02:46:27;2.02;90.48
69503;SHT31;56704;54.242;12.442;2022-11-20T02:48:54;1.99;90.71
69503;SHT31;56704;54.242;12.442;2022-11-20T02:51:21;1.96;90.83
69503;SHT31;56704;54.242;12.442;2022-11-20T02:53:47;1.89;91.26
69503;SHT31;56704;54.242;12.442;2022-11-20T02:56:14;1.85;91.59
69503;SHT31;56704;54.242;12.442;2022-11-20T02:58:43;1.82;92.69
69503;SHT31;56704;54.242;12.442;2022-11-20T03:01:09;1.76;92.06
69503;SHT31;56704;54.242;12.442;2022-11-20T03:03:36;1.67;92.21
69503;SHT31;56704;54.242;12.442;2022-11-20T03:06:03;1.59;92.55
69503;SHT31;56704;54.242;12.442;2022-11-20T03:08:29;1.55;93.41
69503;SHT31;56704;54.242;12.442;2022-11-20T03:10:56;1.45;93.10
69503;SHT31;56704;54.242;12.442;2022-11-20T03:13:24;1.41;93.09
69503;SHT31;56704;54.242;12.442;2022-11-20T03:15:55;1.38;93.48
69503;SHT31;56704;54.242;12.442;2022-11-20T03:18:21;1.36;93.76
69503;SHT31;56704;54.242;12.442;2022-11-20T03:20:48;1.33;93.90
69503;SHT31;56704;54.242;12.442;2022-11-20T03:23:15;1.28;94.08
69503;SHT31;56704;54.242;12.442;2022-11-20T03:25:41;1.31;94.31
69503;SHT31;56704;54.242;12.442;2022-11-20T03:28:08;1.30;94.77
69503;SHT31;56704;54.242;12.442;2022-11-20T03:30:35;1.28;94.88
69503;SHT31;56704;54.242;12.442;2022-11-20T03:33:02;1.26;95.13
69503;SHT31;56704;54.242;12.442;2022-11-20T03:35:29;1.31;94.37
69503;SHT31;56704;54.242;12.442;2022-11-20T03:37:57;1.23;94.69
69503;SHT31;56704;54.242;12.442;2022-11-20T03:40:23;1.20;94.85
69503;SHT31;56704;54.242;12.442;2022-11-20T03:42:50;1.19;94.71
69503;SHT31;56704;54.242;12.442;2022-11-20T03:45:17;1.16;95.11
69503;SHT31;56704;54.242;12.442;2022-11-20T03:47:45;1.15;94.53
69503;SHT31;56704;54.242;12.442;2022-11-20T03:50:13;1.20;94.13
69503;SHT31;56704;54.242;12.442;2022-11-20T03:52:40;1.13;94.89
69503;SHT31;56704;54.242;12.442;2022-11-20T03:55:07;1.10;95.08
69503;SHT31;56704;54.242;12.442;2022-11-20T03:57:34;1.07;95.10
69503;SHT31;56704;54.242;12.442;2022-11-20T04:00:01;1.07;95.67
69503;SHT31;56704;54.242;12.442;2022-11-20T04:02:28;1.08;95.62
69503;SHT31;56704;54.242;12.442;2022-11-20T04:04:54;1.07;95.55
69503;SHT31;56704;54.242;12.442;2022-11-20T04:07:22;1.01;95.34
69503;SHT31;56704;54.242;12.442;2022-11-20T04:09:49;1.00;95.72
69503;SHT31;56704;54.242;12.442;2022-11-20T04:12:16;1.04;96.01
69503;SHT31;56704;54.242;12.442;2022-11-20T04:14:42;1.01;95.75
69503;SHT31;56704;54.242;12.442;2022-11-20T04:17:09;1.01;96.05
69503;SHT31;56704;54.242;12.442;2022-11-20T04:19:35;1.01;95.08
69503;SHT31;56704;54.242;12.442;2022-11-20T04:22:02;1.01;94.34
69503;SHT31;56704;54.242;12.442;2022-11-20T04:24:30;0.99;94.88
69503;SHT31;56704;54.242;12.442;2022-11-20T04:26:57;0.96;94.83
69503;SHT31;56704;54.242;12.442;2022-11-20T04:29:23;0.96;94.71
69503;SHT31;56704;54.242;12.442;2022-11-20T04:31:50;0.87;95.13
69503;SHT31;56704;54.242;12.442;2022-11-20T04:34:16;0.83;95.14
69503;SHT31;56704;54.242;12.442;2022-11-20T04:36:43;0.82;95.90
69503;SHT31;56704;54.242;12.442;2022-11-20T04:39:14;0.77;95.78
69503;SHT31;56704;54.242;12.442;2022-11-20T04:41:42;0.70;95.59
69503;SHT31;56704;54.242;12.442;2022-11-20T04:44:09;0.70;95.69
69503;SHT31;56704;54.242;12.442;2022-11-20T04:46:37;0.66;95.73
69503;SHT31;56704;54.242;12.442;2022-11-20T04:49:05;0.61;95.94
69503;SHT31;56704;54.242;12.442;2022-11-20T04:51:32;0.56;95.87
69503;SHT31;56704;54.242;12.442;2022-11-20T04:53:59;0.51;95.96
69503;SHT31;56704;54.242;12.442;2022-11-20T04:56:25;0.48;95.99
69503;SHT31;56704;54.242;12.442;2022-11-20T04:58:53;0.42;96.28
69503;SHT31;56704;54.242;12.442;2022-11-20T05:01:21;0.40;96.40
69503;SHT31;56704;54.242;12.442;2022-11-20T05:03:49;0.38;96.61
69503;SHT31;56704;54.242;12.442;2022-11-20T05:06:17;0.37;96.48
69503;SHT31;56704;54.242;12.442;2022-11-20T05:08:44;0.34;96.49
69503;SHT31;56704;54.242;12.442;2022-11-20T05:11:12;0.38;96.44
69503;SHT31;56704;54.242;12.442;2022-11-20T05:13:39;0.35;96.59
69503;SHT31;56704;54.242;12.442;2022-11-20T05:16:09;0.34;96.53
69503;SHT31;56704;54.242;12.442;2022-11-20T05:18:37;0.32;96.78
69503;SHT31;56704;54.242;12.442;2022-11-20T05:21:04;0.29;96.70
69503;SHT31;56704;54.242;12.442;2022-11-20T05:23:32;0.28;96.61
69503;SHT31;56704;54.242;12.442;2022-11-20T05:25:59;0.28;96.74
69503;SHT31;56704;54.242;12.442;2022-11-20T05:28:27;0.25;96.79
69503;SHT31;56704;54.242;12.442;2022-11-20T05:30:54;0.24;96.80
69503;SHT31;56704;54.242;12.442;2022-11-20T05:33:22;0.21;96.83
69503;SHT31;56704;54.242;12.442;2022-11-20T05:35:49;0.17;96.71
69503;SHT31;56704;54.242;12.442;2022-11-20T05:38:16;0.15;96.74
69503;SHT31;56704;54.242;12.442;2022-11-20T05:40:42;0.24;97.18
69503;SHT31;56704;54.242;12.442;2022-11-20T05:43:09;0.25;97.00
69503;SHT31;56704;54.242;12.442;2022-11-20T05:45:35;0.24;97.10
69503;SHT31;56704;54.242;12.442;2022-11-20T05:48:03;0.22;97.16
69503;SHT31;56704;54.242;12.442;2022-11-20T05:50:31;0.27;96.79
69503;SHT31;56704;54.242;12.442;2022-11-20T05:52:58;0.24;96.98
69503;SHT31;56704;54.242;12.442;2022-11-20T05:55:26;0.19;96.56
69503;SHT31;56704;54.242;12.442;2022-11-20T05:57:53;0.17;96.93
69503;SHT31;56704;54.242;12.442;2022-11-20T06:00:20;0.13;97.17
69503;SHT31;56704;54.242;12.442;2022-11-20T06:02:46;0.13;97.33
69503;SHT31;56704;54.242;12.442;2022-11-20T06:05:13;0.14;96.96
69503;SHT31;56704;54.242;12.442;2022-11-20T06:07:41;0.13;96.90
69503;SHT31;56704;54.242;12.442;2022-11-20T06:10:08;0.13;96.93
69503;SHT31;56704;54.242;12.442;2022-11-20T06:12:35;0.15;96.88
69503;SHT31;56704;54.242;12.442;2022-11-20T06:15:02;0.15;97.01
69503;SHT31;56704;54.242;12.442;2022-11-20T06:17:29;0.17;96.96
69503;SHT31;56704;54.242;12.442;2022-11-20T06:19:55;0.17;96.85
69503;SHT31;56704;54.242;12.442;2022-11-20T06:22:22;0.18;96.99
69503;SHT31;56704;54.242;12.442;2022-11-20T06:24:50;0.11;97.06
69503;SHT31;56704;54.242;12.442;2022-11-20T06:27:16;0.03;96.98
69503;SHT31;56704;54.242;12.442;2022-11-20T06:29:43;0.01;97.43
69503;SHT31;56704;54.242;12.442;2022-11-20T06:32:10;-0.06;97.56
69503;SHT31;56704;54.242;12.442;2022-11-20T06:34:36;-0.11;97.79
69503;SHT31;56704;54.242;12.442;2022-11-20T06:37:03;-0.11;97.81
69503;SHT31;56704;54.242;12.442;2022-11-20T06:39:31;-0.16;97.90
69503;SHT31;56704;54.242;12.442;2022-11-20T06:41:59;-0.23;97.83
69503;SHT31;56704;54.242;12.442;2022-11-20T06:44:25;-0.24;98.02
69503;SHT31;56704;54.242;12.442;2022-11-20T06:46:52;-0.30;97.96
69503;SHT31;56704;54.242;12.442;2022-11-20T06:49:19;-0.38;97.77
69503;SHT31;56704;54.242;12.442;2022-11-20T06:51:45;-0.42;97.81
69503;SHT31;56704;54.242;12.442;2022-11-20T06:54:12;-0.37;98.37
69503;SHT31;56704;54.242;12.442;2022-11-20T06:56:39;-0.44;98.24
69503;SHT31;56704;54.242;12.442;2022-11-20T06:59:07;-0.44;98.12
69503;SHT31;56704;54.242;12.442;2022-11-20T07:01:34;-0.47;98.08
69503;SHT31;56704;54.242;12.442;2022-11-20T07:04:01;-0.50;98.30
69503;SHT31;56704;54.242;12.442;2022-11-20T07:06:28;-0.50;98.43
69503;SHT31;56704;54.242;12.442;2022-11-20T07:08:55;-0.44;98.60
69503;SHT31;56704;54.242;12.442;2022-11-20T07:11:21;-0.31;98.69
69503;SHT31;56704;54.242;12.442;2022-11-20T07:13:48;-0.16;98.84
69503;SHT31;56704;54.242;12.442;2022-11-20T07:16:16;-0.10;98.78
69503;SHT31;56704;54.242;12.442;2022-11-20T07:18:43;0.00;98.62
69503;SHT31;56704;54.242;12.442;2022-11-20T07:21:10;0.01;98.57
69503;SHT31;56704;54.242;12.442;2022-11-20T07:23:37;0.06;98.60
69503;SHT31;56704;54.242;12.442;2022-11-20T07:26:04;0.00;98.53
69503;SHT31;56704;54.242;12.442;2022-11-20T07:28:31;0.01;98.62
69503;SHT31;56704;54.242;12.442;2022-11-20T07:30:58;-0.02;98.62
69503;SHT31;56704;54.242;12.442;2022-11-20T07:33:26;-0.04;98.69
69503;SHT31;56704;54.242;12.442;2022-11-20T07:35:52;0.01;98.67
69503;SHT31;56704;54.242;12.442;2022-11-20T07:38:19;0.03;98.69
69503;SHT31;56704;54.242;12.442;2022-11-20T07:40:46;0.08;98.54
69503;SHT31;56704;54.242;12.442;2022-11-20T07:43:12;0.06;98.67
69503;SHT31;56704;54.242;12.442;2022-11-20T07:45:39;0.11;98.60
69503;SHT31;56704;54.242;12.442;2022-11-20T07:48:06;0.17;98.55
69503;SHT31;56704;54.242;12.442;2022-11-20T07:50:34;0.21;98.43
69503;SHT31;56704;54.242;12.442;2022-11-20T07:53:02;0.22;98.43
69503;SHT31;56704;54.242;12.442;2022-11-20T07:55:29;0.25;98.47
69503;SHT31;56704;54.242;12.442;2022-11-20T07:57:56;0.25;98.37
69503;SHT31;56704;54.242;12.442;2022-11-20T08:00:23;0.27;98.26
69503;SHT31;56704;54.242;12.442;2022-11-20T08:02:50;0.28;98.31
69503;SHT31;56704;54.242;12.442;2022-11-20T08:05:16;0.29;98.28
69503;SHT31;56704;54.242;12.442;2022-11-20T08:07:45;0.27;98.23
69503;SHT31;56704;54.242;12.442;2022-11-20T08:10:13;0.31;98.24
69503;SHT31;56704;54.242;12.442;2022-11-20T08:12:44;0.35;98.43
69503;SHT31;56704;54.242;12.442;2022-11-20T08:15:29;0.32;98.25
69503;SHT31;56704;54.242;12.442;2022-11-20T08:18:01;0.32;98.24
69503;SHT31;56704;54.242;12.442;2022-11-20T08:20:28;0.29;97.97
69503;SHT31;56704;54.242;12.442;2022-11-20T08:22:59;0.35;98.16
69503;SHT31;56704;54.242;12.442;2022-11-20T08:25:27;0.38;98.19
69503;SHT31;56704;54.242;12.442;2022-11-20T08:27:54;0.42;97.88
69503;SHT31;56704;54.242;12.442;2022-11-20T08:30:20;0.46;98.08
69503;SHT31;56704;54.242;12.442;2022-11-20T08:32:47;0.48;97.64
69503;SHT31;56704;54.242;12.442;2022-11-20T08:35:14;0.44;97.55
69503;SHT31;56704;54.242;12.442;2022-11-20T08:37:40;0.45;97.46
69503;SHT31;56704;54.242;12.442;2022-11-20T08:40:11;0.48;97.57
69503;SHT31;56704;54.242;12.442;2022-11-20T08:42:45;0.46;97.09
69503;SHT31;56704;54.242;12.442;2022-11-20T08:45:12;0.46;97.39
69503;SHT31;56704;54.242;12.442;2022-11-20T08:47:39;0.52;97.10
69503;SHT31;56704;54.242;12.442;2022-11-20T08:50:06;0.55;97.41
69503;SHT31;56704;54.242;12.442;2022-11-20T08:52:33;0.54;97.30
69503;SHT31;56704;54.242;12.442;2022-11-20T08:55:00;0.56;97.30
69503;SHT31;56704;54.242;12.442;2022-11-20T08:57:28;0.55;97.01
69503;SHT31;56704;54.242;12.442;2022-11-20T08:59:54;0.52;97.11
69503;SHT31;56704;54.242;12.442;2022-11-20T09:02:21;0.55;97.17
69503;SHT31;56704;54.242;12.442;2022-11-20T09:04:48;0.55;97.10
69503;SHT31;56704;54.242;12.442;2022-11-20T09:07:14;0.56;97.34
69503;SHT31;56704;54.242;12.442;2022-11-20T09:09:41;0.64;97.37
69503;SHT31;56704;54.242;12.442;2022-11-20T09:12:08;0.95;97.85
69503;SHT31;56704;54.242;12.442;2022-11-20T09:14:36;1.30;97.17
69503;SHT31;56704;54.242;12.442;2022-11-20T09:17:02;1.38;96.52
69503;SHT31;56704;54.242;12.442;2022-11-20T09:19:29;1.48;95.83
69503;SHT31;56704;54.242;12.442;2022-11-20T09:21:56;1.52;95.89
69503;SHT31;56704;54.242;12.442;2022-11-20T09:24:22;1.52;95.77
69503;SHT31;56704;54.242;12.442;2022-11-20T09:26:49;1.57;95.37
69503;SHT31;56704;54.242;12.442;2022-11-20T09:29:15;1.55;94.64
69503;SHT31;56704;54.242;12.442;2022-11-20T09:31:43;1.65;95.58
69503;SHT31;56704;54.242;12.442;2022-11-20T09:34:10;1.76;95.64
69503;SHT31;56704;54.242;12.442;2022-11-20T09:36:37;1.68;94.55
69503;SHT31;56704;54.242;12.442;2022-11-20T09:39:03;1.61;94.87
69503;SHT31;56704;54.242;12.442;2022-11-20T09:41:48;1.55;94.55
69503;SHT31;56704;54.242;12.442;2022-11-20T09:44:28;1.54;94.94
69503;SHT31;56704;54.242;12.442;2022-11-20T09:47:03;1.50;94.40
69503;SHT31;56704;54.242;12.442;2022-11-20T09:49:40;1.45;94.26
69503;SHT31;56704;54.242;12.442;2022-11-20T09:52:24;1.47;94.39
69503;SHT31;56704;54.242;12.442;2022-11-20T09:54:54;1.51;94.04
69503;SHT31;56704;54.242;12.442;2022-11-20T09:57:23;1.45;93.89
69503;SHT31;56704;54.242;12.442;2022-11-20T09:59:55;1.38;94.23
69503;SHT31;56704;54.242;12.442;2022-11-20T10:02:28;1.23;94.33
69503;SHT31;56704;54.242;12.442;2022-11-20T10:04:58;1.41;95.50
69503;SHT31;56704;54.242;12.442;2022-11-20T10:07:30;1.37;94.96
69503;SHT31;56704;54.242;12.442;2022-11-20T10:10:00;1.38;94.61
69503;SHT31;56704;54.242;12.442;2022-11-20T10:12:34;1.50;95.20
69503;SHT31;56704;54.242;12.442;2022-11-20T10:15:12;1.65;94.91
69503;SHT31;56704;54.242;12.442;2022-11-20T10:17:57;1.71;94.68
69503;SHT31;56704;54.242;12.442;2022-11-20T10:20:30;1.57;93.63
69503;SHT31;56704;54.242;12.442;2022-11-20T10:23:21;1.48;93.95
69503;SHT31;56704;54.242;12.442;2022-11-20T10:25:57;1.55;93.60
69503;SHT31;56704;54.242;12.442;2022-11-20T10:28:41;1.48;93.92
69503;SHT31;56704;54.242;12.442;2022-11-20T10:31:23;1.55;93.95
69503;SHT31;56704;54.242;12.442;2022-11-20T10:33:55;1.68;94.40
69503;SHT31;56704;54.242;12.442;2022-11-20T10:36:27;1.85;94.28
69503;SHT31;56704;54.242;12.442;2022-11-20T10:38:56;2.01;94.51
69503;SHT31;56704;54.242;12.442;2022-11-20T10:41:28;2.13;94.50
69503;SHT31;56704;54.242;12.442;2022-11-20T10:44:02;2.22;94.36
69503;SHT31;56704;54.242;12.442;2022-11-20T10:46:36;2.09;92.10
69503;SHT31;56704;54.242;12.442;2022-11-20T10:49:11;2.09;92.73
69503;SHT31;56704;54.242;12.442;2022-11-20T10:51:48;1.82;91.91
69503;SHT31;56704;54.242;12.442;2022-11-20T10:54:22;1.88;92.83
69503;SHT31;56704;54.242;12.442;2022-11-20T10:56:52;1.89;92.81
69503;SHT31;56704;54.242;12.442;2022-11-20T11:02:23;2.02;92.46
69503;SHT31;56704;54.242;12.442;2022-11-20T11:04:52;2.06;92.45
69503;SHT31;56704;54.242;12.442;2022-11-20T11:07:22;1.95;91.25
69503;SHT31;56704;54.242;12.442;2022-11-20T11:09:52;1.88;92.19
69503;SHT31;56704;54.242;12.442;2022-11-20T11:12:20;1.82;92.79
69503;SHT31;56704;54.242;12.442;2022-11-20T11:14:48;1.74;91.69
69503;SHT31;56704;54.242;12.442;2022-11-20T11:17:22;1.69;91.79
69503;SHT31;56704;54.242;12.442;2022-11-20T11:20:02;1.94;92.73
69503;SHT31;56704;54.242;12.442;2022-11-20T11:22:31;2.58;93.42
69503;SHT31;56704;54.242;12.442;2022-11-20T11:24:59;3.20;92.21
69503;SHT31;56704;54.242;12.442;2022-11-20T11:27:25;3.63;90.36
69503;SHT31;56704;54.242;12.442;2022-11-20T11:30:02;4.14;90.55
69503;SHT31;56704;54.242;12.442;2022-11-20T11:32:29;4.37;90.04
69503;SHT31;56704;54.242;12.442;2022-11-20T11:35:01;4.45;89.14
69503;SHT31;56704;54.242;12.442;2022-11-20T11:37:33;4.39;86.98
69503;SHT31;56704;54.242;12.442;2022-11-20T11:40:01;4.32;86.33
69503;SHT31;56704;54.242;12.442;2022-11-20T11:42:28;4.35;88.96
69503;SHT31;56704;54.242;12.442;2022-11-20T11:44:57;3.74;85.37
69503;SHT31;56704;54.242;12.442;2022-11-20T11:47:35;3.09;87.24
69503;SHT31;56704;54.242;12.442;2022-11-20T11:50:15;3.13;89.72
69503;SHT31;56704;54.242;12.442;2022-11-20T11:52:47;3.09;90.40
69503;SHT31;56704;54.242;12.442;2022-11-20T11:55:18;3.30;90.99
69503;SHT31;56704;54.242;12.442;2022-11-20T11:57:52;3.39;91.09
69503;SHT31;56704;54.242;12.442;2022-11-20T12:00:21;3.47;90.12
69503;SHT31;56704;54.242;12.442;2022-11-20T12:02:57;3.39;90.20
69503;SHT31;56704;54.242;12.442;2022-11-20T12:05:32;3.16;89.01
69503;SHT31;56704;54.242;12.442;2022-11-20T12:08:04;3.01;89.18
69503;SHT31;56704;54.242;12.442;2022-11-20T12:10:40;3.01;90.52
69503;SHT31;56704;54.242;12.442;2022-11-20T12:13:18;3.05;90.62
69503;SHT31;56704;54.242;12.442;2022-11-20T12:15:47;3.01;91.78
69503;SHT31;56704;54.242;12.442;2022-11-20T12:18:15;2.87;91.30
69503;SHT31;56704;54.242;12.442;2022-11-20T12:20:51;2.81;91.59
69503;SHT31;56704;54.242;12.442;2022-11-20T12:23:25;2.85;91.97
69503;SHT31;56704;54.242;12.442;2022-11-20T12:25:57;2.77;92.72
69503;SHT31;56704;54.242;12.442;2022-11-20T12:28:42;2.62;92.39
69503;SHT31;56704;54.242;12.442;2022-11-20T12:31:25;2.43;92.10
69503;SHT31;56704;54.242;12.442;2022-11-20T12:34:03;2.19;92.75
69503;SHT31;56704;54.242;12.442;2022-11-20T12:36:42;2.07;93.61
69503;SHT31;56704;54.242;12.442;2022-11-20T12:39:30;1.91;93.45
69503;SHT31;56704;54.242;12.442;2022-11-20T12:48:57;1.69;94.46
69503;SHT31;56704;54.242;12.442;2022-11-20T12:51:42;1.72;94.74
69503;SHT31;56704;54.242;12.442;2022-11-20T12:54:34;1.75;94.33
69503;SHT31;56704;54.242;12.442;2022-11-20T12:57:09;2.25;94.85
69503;SHT31;56704;54.242;12.442;2022-11-20T12:59:58;2.40;93.78
69503;SHT31;56704;54.242;12.442;2022-11-20T13:02:34;2.43;93.62
69503;SHT31;56704;54.242;12.442;2022-11-20T13:05:13;2.76;93.25
69503;SHT31;56704;54.242;12.442;2022-11-20T13:07:46;3.09;92.44
69503;SHT31;56704;54.242;12.442;2022-11-20T13:10:18;3.33;91.80
69503;SHT31;56704;54.242;12.442;2022-11-20T13:12:50;3.42;90.78
69503;SHT31;56704;54.242;12.442;2022-11-20T13:15:28;3.35;87.68
69503;SHT31;56704;54.242;12.442;2022-11-20T13:17:59;3.11;86.72
69503;SHT31;56704;54.242;12.442;2022-11-20T13:20:27;3.43;89.18
69503;SHT31;56704;54.242;12.442;2022-11-20T13:22:55;3.94;90.77
69503;SHT31;56704;54.242;12.442;2022-11-20T13:25:24;4.35;89.12
69503;SHT31;56704;54.242;12.442;2022-11-20T13:27:52;4.68;87.78
69503;SHT31;56704;54.242;12.442;2022-11-20T13:30:20;4.62;85.01
69503;SHT31;56704;54.242;12.442;2022-11-20T13:32:52;4.50;86.01
69503;SHT31;56704;54.242;12.442;2022-11-20T13:35:30;4.48;86.21
69503;SHT31;56704;54.242;12.442;2022-11-20T13:38:08;4.68;88.11
69503;SHT31;56704;54.242;12.442;2022-11-20T13:40:37;4.89;87.69
69503;SHT31;56704;54.242;12.442;2022-11-20T13:43:14;4.93;85.20
69503;SHT31;56704;54.242;12.442;2022-11-20T13:45:42;5.10;86.66
69503;SHT31;56704;54.242;12.442;2022-11-20T13:48:20;5.08;85.02
69503;SHT31;56704;54.242;12.442;2022-11-20T13:50:56;4.99;82.93
69503;SHT31;56704;54.242;12.442;2022-11-20T13:53:36;4.80;83.89
69503;SHT31;56704;54.242;12.442;2022-11-20T13:56:14;4.65;85.38
69503;SHT31;56704;54.242;12.442;2022-11-20T13:58:52;4.60;85.28
69503;SHT31;56704;54.242;12.442;2022-11-20T14:01:24;4.53;84.52
69503;SHT31;56704;54.242;12.442;2022-11-20T14:03:53;4.32;84.32
69503;SHT31;56704;54.242;12.442;2022-11-20T14:06:26;4.18;84.67
69503;SHT31;56704;54.242;12.442;2022-11-20T14:08:56;4.22;87.18
69503;SHT31;56704;54.242;12.442;2022-11-20T14:11:24;4.37;87.76
69503;SHT31;56704;54.242;12.442;2022-11-20T14:13:57;4.38;86.89
69503;SHT31;56704;54.242;12.442;2022-11-20T14:16:25;4.38;87.58
69503;SHT31;56704;54.242;12.442;2022-11-20T14:18:53;4.37;87.24
69503;SHT31;56704;54.242;12.442;2022-11-20T14:21:28;4.44;87.53
69503;SHT31;56704;54.242;12.442;2022-11-20T14:24:05;4.34;86.53
69503;SHT31;56704;54.242;12.442;2022-11-20T14:26:32;4.14;85.45
69503;SHT31;56704;54.242;12.442;2022-11-20T14:28:59;3.94;86.32
69503;SHT31;56704;54.242;12.442;2022-11-20T14:31:27;3.84;87.62
69503;SHT31;56704;54.242;12.442;2022-11-20T14:33:55;3.81;87.54
69503;SHT31;56704;54.242;12.442;2022-11-20T14:36:23;3.73;87.54
69503;SHT31;56704;54.242;12.442;2022-11-20T14:38:51;3.56;87.63
69503;SHT31;56704;54.242;12.442;2022-11-20T14:41:21;3.35;87.69
69503;SHT31;56704;54.242;12.442;2022-11-20T14:43:52;3.13;87.71
69503;SHT31;56704;54.242;12.442;2022-11-20T14:46:20;2.83;87.54
69503;SHT31;56704;54.242;12.442;2022-11-20T14:48:49;2.71;89.46
69503;SHT31;56704;54.242;12.442;2022-11-20T14:51:26;2.60;89.32
69503;SHT31;56704;54.242;12.442;2022-11-20T14:53:53;2.54;89.90
69503;SHT31;56704;54.242;12.442;2022-11-20T14:56:23;2.53;89.84
69503;SHT31;56704;54.242;12.442;2022-11-20T14:58:56;2.54;90.47
69503;SHT31;56704;54.242;12.442;2022-11-20T15:01:27;2.46;90.40
69503;SHT31;56704;54.242;12.442;2022-11-20T15:04:00;2.40;91.34
69503;SHT31;56704;54.242;12.442;2022-11-20T15:06:28;2.33;90.91
69503;SHT31;56704;54.242;12.442;2022-11-20T15:08:56;2.32;91.30
69503;SHT31;56704;54.242;12.442;2022-11-20T15:11:28;2.26;91.36
69503;SHT31;56704;54.242;12.442;2022-11-20T15:13:56;2.19;91.32
69503;SHT31;56704;54.242;12.442;2022-11-20T15:16:24;2.09;91.15
69503;SHT31;56704;54.242;12.442;2022-11-20T15:18:53;2.01;91.18
69503;SHT31;56704;54.242;12.442;2022-11-20T15:21:20;1.91;91.37
69503;SHT31;56704;54.242;12.442;2022-11-20T15:23:47;1.79;90.66
69503;SHT31;56704;54.242;12.442;2022-11-20T15:26:15;1.68;89.42
69503;SHT31;56704;54.242;12.442;2022-11-20T15:28:46;1.58;89.50
69503;SHT31;56704;54.242;12.442;2022-11-20T15:31:17;1.47;89.66
69503;SHT31;56704;54.242;12.442;2022-11-20T15:33:44;1.31;89.30
69503;SHT31;56704;54.242;12.442;2022-11-20T15:36:11;1.17;88.52
69503;SHT31;56704;54.242;12.442;2022-11-20T15:38:37;0.99;88.61
69503;SHT31;56704;54.242;12.442;2022-11-20T15:41:04;0.92;89.01
69503;SHT31;56704;54.242;12.442;2022-11-20T15:43:31;0.90;89.91
69503;SHT31;56704;54.242;12.442;2022-11-20T15:46:01;0.79;89.64
69503;SHT31;56704;54.242;12.442;2022-11-20T15:48:31;0.68;89.11
69503;SHT31;56704;54.242;12.442;2022-11-20T15:51:01;0.59;89.42
69503;SHT31;56704;54.242;12.442;2022-11-20T15:53:29;0.54;89.97
69503;SHT31;56704;54.242;12.442;2022-11-20T15:55:56;0.46;90.24